sensor_id;sensor_type;location;lat;lon;timestamp;temperature;humidity
33988;DHT22;37428;53.580;-1.666;2024-01-30T00:01:43;7.20;99.90
33988;DHT22;37428;53.580;-1.666;2024-01-30T00:04:45;7.20;99.90
33988;DHT22;37428;53.580;-1.666;2024-01-30T00:07:47;7.20;99.90
33988;DHT22;37428;53.580;-1.666;2024-01-30T00:10:49;7.20;99.90
33988;DHT22;37428;53.580;-1.666;2024-01-30T00:13:53;7.20;99.90
33988;DHT22;37428;53.580;-1.666;2024-01-30T00:16:55;7.30;99.90
33988;DHT22;37428;53.580;-1.666;2024-01-30T00:19:57;7.30;99.90
33988;DHT22;37428;53.580;-1.666;2024-01-30T00:22:59;7.30;99.90
33988;DHT22;37428;53.580;-1.666;2024-01-30T00:26:02;7.30;99.90
33988;DHT22;37428;53.580;-1.666;2024-01-30T00:29:06;7.40;99.90
33988;DHT22;37428;53.580;-1.666;2024-01-30T00:32:08;7.40;99.90
33988;DHT22;37428;53.580;-1.666;2024-01-30T00:35:10;7.40;99.90
33988;DHT22;37428;53.580;-1.666;2024-01-30T00:38:12;7.40;99.90
33988;DHT22;37428;53.580;-1.666;2024-01-30T00:41:14;7.40;99.90
33988;DHT22;37428;53.580;-1.666;2024-01-30T00:44:20;7.30;99.90
33988;DHT22;37428;53.580;-1.666;2024-01-30T00:47:22;7.30;99.90
33988;DHT22;37428;53.580;-1.666;2024-01-30T00:50:24;7.20;99.90
33988;DHT22;37428;53.580;-1.666;2024-01-30T00:53:26;7.20;99.90
33988;DHT22;37428;53.580;-1.666;2024-01-30T00:56:28;7.20;99.90
33988;DHT22;37428;53.580;-1.666;2024-01-30T00:59:33;7.20;99.90
33988;DHT22;37428;53.580;-1.666;2024-01-30T01:02:35;7.20;99.90
33988;DHT22;37428;53.580;-1.666;2024-01-30T01:05:37;7.30;99.90
33988;DHT22;37428;53.580;-1.666;2024-01-30T01:08:39;7.30;99.90
33988;DHT22;37428;53.580;-1.666;2024-01-30T01:11:41;7.30;99.90
33988;DHT22;37428;53.580;-1.666;2024-01-30T01:14:45;7.20;99.90
33988;DHT22;37428;53.580;-1.666;2024-01-30T01:17:47;7.30;99.90
33988;DHT22;37428;53.580;-1.666;2024-01-30T01:20:50;7.30;99.90
33988;DHT22;37428;53.580;-1.666;2024-01-30T01:23:52;7.30;99.90
33988;DHT22;37428;53.580;-1.666;2024-01-30T01:26:54;7.20;99.90
33988;DHT22;37428;53.580;-1.666;2024-01-30T01:29:58;7.30;99.90
33988;DHT22;37428;53.580;-1.666;2024-01-30T01:33:00;7.30;99.90
33988;DHT22;37428;53.580;-1.666;2024-01-30T01:36:03;7.30;99.90
33988;DHT22;37428;53.580;-1.666;2024-01-30T01:39:05;7.30;99.90
33988;DHT22;37428;53.580;-1.666;2024-01-30T01:42:07;7.20;99.90
33988;DHT22;37428;53.580;-1.666;2024-01-30T01:45:11;7.20;99.90
33988;DHT22;37428;53.580;-1.666;2024-01-30T01:48:13;7.20;99.90
33988;DHT22;37428;53.580;-1.666;2024-01-30T01:51:15;7.20;99.90
33988;DHT22;37428;53.580;-1.666;2024-01-30T01:54:18;7.20;99.90
33988;DHT22;37428;53.580;-1.666;2024-01-30T01:57:20;7.20;99.90
33988;DHT22;37428;53.580;-1.666;2024-01-30T02:00:24;7.10;99.90
33988;DHT22;37428;53.580;-1.666;2024-01-30T02:03:26;7.10;99.90
33988;DHT22;37428;53.580;-1.666;2024-01-30T02:06:28;7.10;99.90
33988;DHT22;37428;53.580;-1.666;2024-01-30T02:09:30;7.10;99.90
33988;DHT22;37428;53.580;-1.666;2024-01-30T02:12:32;7.10;99.90
33988;DHT22;37428;53.580;-1.666;2024-01-30T02:15:36;7.10;99.90
33988;DHT22;37428;53.580;-1.666;2024-01-30T02:18:38;7.20;99.90
33988;DHT22;37428;53.580;-1.666;2024-01-30T02:21:46;7.20;99.90
33988;DHT22;37428;53.580;-1.666;2024-01-30T02:24:48;7.20;99.90
33988;DHT22;37428;53.580;-1.666;2024-01-30T02:27:50;7.20;99.90
33988;DHT22;37428;53.580;-1.666;2024-01-30T02:30:52;7.20;99.90
33988;DHT22;37428;53.580;-1.666;2024-01-30T02:33:54;7.30;99.90
33988;DHT22;37428;53.580;-1.666;2024-01-30T02:36:58;7.30;99.90
33988;DHT22;37428;53.580;-1.666;2024-01-30T02:40:00;7.30;99.90
33988;DHT22;37428;53.580;-1.666;2024-01-30T02:43:03;7.30;99.90
33988;DHT22;37428;53.580;-1.666;2024-01-30T02:46:05;7.30;99.90
33988;DHT22;37428;53.580;-1.666;2024-01-30T02:49:07;7.30;99.90
33988;DHT22;37428;53.580;-1.666;2024-01-30T02:52:11;7.30;99.90
33988;DHT22;37428;53.580;-1.666;2024-01-30T02:55:13;7.30;99.90
33988;DHT22;37428;53.580;-1.666;2024-01-30T02:58:18;7.30;99.90
33988;DHT22;37428;53.580;-1.666;2024-01-30T03:01:20;7.30;99.90
33988;DHT22;37428;53.580;-1.666;2024-01-30T03:04:22;7.30;99.90
33988;DHT22;37428;53.580;-1.666;2024-01-30T03:07:25;7.30;99.90
33988;DHT22;37428;53.580;-1.666;2024-01-30T03:10:27;7.20;99.90
33988;DHT22;37428;53.580;-1.666;2024-01-30T03:13:29;7.20;99.90
33988;DHT22;37428;53.580;-1.666;2024-01-30T03:16:31;7.20;99.90
33988;DHT22;37428;53.580;-1.666;2024-01-30T03:19:34;7.20;99.90
33988;DHT22;37428;53.580;-1.666;2024-01-30T03:22:37;7.20;99.90
33988;DHT22;37428;53.580;-1.666;2024-01-30T03:25:39;7.20;99.90
33988;DHT22;37428;53.580;-1.666;2024-01-30T03:28:41;7.10;99.90
33988;DHT22;37428;53.580;-1.666;2024-01-30T03:31:43;7.10;99.90
33988;DHT22;37428;53.580;-1.666;2024-01-30T03:34:45;7.00;99.90
33988;DHT22;37428;53.580;-1.666;2024-01-30T03:37:49;7.00;99.90
33988;DHT22;37428;53.580;-1.666;2024-01-30T03:40:51;7.00;99.90
33988;DHT22;37428;53.580;-1.666;2024-01-30T03:43:53;6.90;99.90
33988;DHT22;37428;53.580;-1.666;2024-01-30T03:46:55;6.80;99.90
33988;DHT22;37428;53.580;-1.666;2024-01-30T03:49:57;6.90;99.90
33988;DHT22;37428;53.580;-1.666;2024-01-30T03:53:01;6.80;99.90
33988;DHT22;37428;53.580;-1.666;2024-01-30T03:56:03;6.80;99.90
33988;DHT22;37428;53.580;-1.666;2024-01-30T03:59:05;6.80;99.90
33988;DHT22;37428;53.580;-1.666;2024-01-30T04:02:08;6.80;99.90
33988;DHT22;37428;53.580;-1.666;2024-01-30T04:05:10;6.80;99.90
33988;DHT22;37428;53.580;-1.666;2024-01-30T04:08:13;6.90;99.90
33988;DHT22;37428;53.580;-1.666;2024-01-30T04:11:18;6.90;99.90
33988;DHT22;37428;53.580;-1.666;2024-01-30T04:14:20;6.90;99.90
33988;DHT22;37428;53.580;-1.666;2024-01-30T04:17:22;6.90;99.90
33988;DHT22;37428;53.580;-1.666;2024-01-30T04:20:24;6.90;99.90
33988;DHT22;37428;53.580;-1.666;2024-01-30T04:23:28;7.00;99.90
33988;DHT22;37428;53.580;-1.666;2024-01-30T04:26:30;7.00;99.90
33988;DHT22;37428;53.580;-1.666;2024-01-30T04:29:32;7.00;99.90
33988;DHT22;37428;53.580;-1.666;2024-01-30T04:32:35;6.90;99.90
33988;DHT22;37428;53.580;-1.666;2024-01-30T04:35:37;6.90;99.90
33988;DHT22;37428;53.580;-1.666;2024-01-30T04:38:40;6.90;99.90
33988;DHT22;37428;53.580;-1.666;2024-01-30T04:41:42;6.90;99.90
33988;DHT22;37428;53.580;-1.666;2024-01-30T04:44:44;6.90;99.90
33988;DHT22;37428;53.580;-1.666;2024-01-30T04:47:46;6.80;99.90
33988;DHT22;37428;53.580;-1.666;2024-01-30T04:50:48;6.70;99.90
33988;DHT22;37428;53.580;-1.666;2024-01-30T04:53:52;6.70;99.90
33988;DHT22;37428;53.580;-1.666;2024-01-30T04:56:54;6.70;99.90
33988;DHT22;37428;53.580;-1.666;2024-01-30T04:59:56;6.70;99.90
33988;DHT22;37428;53.580;-1.666;2024-01-30T05:02:58;6.60;99.90
33988;DHT22;37428;53.580;-1.666;2024-01-30T05:06:00;6.60;99.90
33988;DHT22;37428;53.580;-1.666;2024-01-30T05:09:04;6.50;99.90
33988;DHT22;37428;53.580;-1.666;2024-01-30T05:12:07;6.40;99.90
33988;DHT22;37428;53.580;-1.666;2024-01-30T05:15:09;6.40;99.90
33988;DHT22;37428;53.580;-1.666;2024-01-30T05:18:11;6.40;99.90
33988;DHT22;37428;53.580;-1.666;2024-01-30T05:21:13;6.40;99.90
33988;DHT22;37428;53.580;-1.666;2024-01-30T05:24:17;6.40;99.90
33988;DHT22;37428;53.580;-1.666;2024-01-30T05:27:19;6.20;99.90
33988;DHT22;37428;53.580;-1.666;2024-01-30T05:30:21;6.20;99.90
33988;DHT22;37428;53.580;-1.666;2024-01-30T05:33:23;6.20;99.90
33988;DHT22;37428;53.580;-1.666;2024-01-30T05:36:25;6.20;99.90
33988;DHT22;37428;53.580;-1.666;2024-01-30T05:39:29;6.20;99.90
33988;DHT22;37428;53.580;-1.666;2024-01-30T05:42:33;6.20;99.90
33988;DHT22;37428;53.580;-1.666;2024-01-30T05:45:35;6.10;99.90
33988;DHT22;37428;53.580;-1.666;2024-01-30T05:48:37;6.00;99.90
33988;DHT22;37428;53.580;-1.666;2024-01-30T05:51:39;6.00;99.90
33988;DHT22;37428;53.580;-1.666;2024-01-30T05:54:43;6.00;99.90
33988;DHT22;37428;53.580;-1.666;2024-01-30T05:57:45;6.00;99.90
33988;DHT22;37428;53.580;-1.666;2024-01-30T06:00:47;6.00;99.90
33988;DHT22;37428;53.580;-1.666;2024-01-30T06:03:49;6.00;99.90
33988;DHT22;37428;53.580;-1.666;2024-01-30T06:06:51;6.00;99.90
33988;DHT22;37428;53.580;-1.666;2024-01-30T06:09:55;6.00;99.90
33988;DHT22;37428;53.580;-1.666;2024-01-30T06:12:57;5.90;99.90
33988;DHT22;37428;53.580;-1.666;2024-01-30T06:15:59;5.90;99.90
33988;DHT22;37428;53.580;-1.666;2024-01-30T06:19:01;5.90;99.90
33988;DHT22;37428;53.580;-1.666;2024-01-30T06:22:03;5.80;99.90
33988;DHT22;37428;53.580;-1.666;2024-01-30T06:25:08;5.80;99.90
33988;DHT22;37428;53.580;-1.666;2024-01-30T06:28:10;5.80;99.90
33988;DHT22;37428;53.580;-1.666;2024-01-30T06:31:12;5.80;99.90
33988;DHT22;37428;53.580;-1.666;2024-01-30T06:34:14;5.90;99.90
33988;DHT22;37428;53.580;-1.666;2024-01-30T06:37:17;5.90;99.90
33988;DHT22;37428;53.580;-1.666;2024-01-30T06:40:20;5.90;99.90
33988;DHT22;37428;53.580;-1.666;2024-01-30T06:43:22;5.90;99.90
33988;DHT22;37428;53.580;-1.666;2024-01-30T06:46:24;5.90;99.90
33988;DHT22;37428;53.580;-1.666;2024-01-30T06:49:27;5.80;99.90
33988;DHT22;37428;53.580;-1.666;2024-01-30T06:52:30;5.90;99.90
33988;DHT22;37428;53.580;-1.666;2024-01-30T06:55:33;5.80;99.90
33988;DHT22;37428;53.580;-1.666;2024-01-30T06:58:35;5.80;99.90
33988;DHT22;37428;53.580;-1.666;2024-01-30T07:01:37;5.80;99.90
33988;DHT22;37428;53.580;-1.666;2024-01-30T07:04:39;5.80;99.90
33988;DHT22;37428;53.580;-1.666;2024-01-30T07:07:42;5.80;99.90
33988;DHT22;37428;53.580;-1.666;2024-01-30T07:10:46;5.70;99.90
33988;DHT22;37428;53.580;-1.666;2024-01-30T07:13:48;5.70;99.90
33988;DHT22;37428;53.580;-1.666;2024-01-30T07:16:50;5.70;99.90
33988;DHT22;37428;53.580;-1.666;2024-01-30T07:19:52;5.80;99.90
33988;DHT22;37428;53.580;-1.666;2024-01-30T07:22:54;5.60;99.90
33988;DHT22;37428;53.580;-1.666;2024-01-30T07:25:58;5.70;99.90
33988;DHT22;37428;53.580;-1.666;2024-01-30T07:29:00;5.60;99.90
33988;DHT22;37428;53.580;-1.666;2024-01-30T07:32:02;5.60;99.90
33988;DHT22;37428;53.580;-1.666;2024-01-30T07:35:05;5.60;99.90
33988;DHT22;37428;53.580;-1.666;2024-01-30T07:38:07;5.60;99.90
33988;DHT22;37428;53.580;-1.666;2024-01-30T07:41:10;5.60;99.90
33988;DHT22;37428;53.580;-1.666;2024-01-30T07:44:13;5.60;99.90
33988;DHT22;37428;53.580;-1.666;2024-01-30T07:47:15;5.50;99.90
33988;DHT22;37428;53.580;-1.666;2024-01-30T07:50:17;5.60;99.90
33988;DHT22;37428;53.580;-1.666;2024-01-30T07:53:19;5.60;99.90
33988;DHT22;37428;53.580;-1.666;2024-01-30T07:56:22;5.60;99.90
33988;DHT22;37428;53.580;-1.666;2024-01-30T07:59:24;5.70;99.90
33988;DHT22;37428;53.580;-1.666;2024-01-30T08:02:27;5.60;99.90
33988;DHT22;37428;53.580;-1.666;2024-01-30T08:05:29;5.60;99.90
33988;DHT22;37428;53.580;-1.666;2024-01-30T08:08:31;5.60;99.90
33988;DHT22;37428;53.580;-1.666;2024-01-30T08:11:34;5.60;99.90
33988;DHT22;37428;53.580;-1.666;2024-01-30T08:14:36;5.60;99.90
33988;DHT22;37428;53.580;-1.666;2024-01-30T08:17:39;5.50;99.90
33988;DHT22;37428;53.580;-1.666;2024-01-30T08:20:41;5.50;99.90
33988;DHT22;37428;53.580;-1.666;2024-01-30T08:23:43;5.60;99.90
33988;DHT22;37428;53.580;-1.666;2024-01-30T08:26:46;5.50;99.90
33988;DHT22;37428;53.580;-1.666;2024-01-30T08:29:48;5.50;99.90
33988;DHT22;37428;53.580;-1.666;2024-01-30T08:32:51;5.50;99.90
33988;DHT22;37428;53.580;-1.666;2024-01-30T08:35:54;5.50;99.90
33988;DHT22;37428;53.580;-1.666;2024-01-30T08:38:56;5.50;99.90
33988;DHT22;37428;53.580;-1.666;2024-01-30T08:41:59;5.50;99.90
33988;DHT22;37428;53.580;-1.666;2024-01-30T08:45:02;5.60;99.90
33988;DHT22;37428;53.580;-1.666;2024-01-30T08:48:06;5.60;99.90
33988;DHT22;37428;53.580;-1.666;2024-01-30T08:51:08;5.50;99.90
33988;DHT22;37428;53.580;-1.666;2024-01-30T08:54:11;5.50;99.90
33988;DHT22;37428;53.580;-1.666;2024-01-30T08:57:14;5.60;99.90
33988;DHT22;37428;53.580;-1.666;2024-01-30T09:00:17;5.60;99.90
33988;DHT22;37428;53.580;-1.666;2024-01-30T09:03:19;5.60;99.90
33988;DHT22;37428;53.580;-1.666;2024-01-30T09:06:21;5.50;99.90
33988;DHT22;37428;53.580;-1.666;2024-01-30T09:09:24;5.50;99.90
33988;DHT22;37428;53.580;-1.666;2024-01-30T09:12:28;5.60;99.90
33988;DHT22;37428;53.580;-1.666;2024-01-30T09:15:30;5.50;99.90
33988;DHT22;37428;53.580;-1.666;2024-01-30T09:18:32;5.40;99.90
33988;DHT22;37428;53.580;-1.666;2024-01-30T09:21:34;5.40;99.90
33988;DHT22;37428;53.580;-1.666;2024-01-30T09:24:36;5.30;99.90
33988;DHT22;37428;53.580;-1.666;2024-01-30T09:27:39;5.30;99.90
33988;DHT22;37428;53.580;-1.666;2024-01-30T09:30:41;5.30;99.90
33988;DHT22;37428;53.580;-1.666;2024-01-30T09:33:44;5.30;99.90
33988;DHT22;37428;53.580;-1.666;2024-01-30T09:36:48;5.40;99.90
33988;DHT22;37428;53.580;-1.666;2024-01-30T09:39:50;5.50;99.90
33988;DHT22;37428;53.580;-1.666;2024-01-30T09:42:54;5.60;99.90
33988;DHT22;37428;53.580;-1.666;2024-01-30T09:45:57;5.70;99.90
33988;DHT22;37428;53.580;-1.666;2024-01-30T09:49:01;5.70;99.90
33988;DHT22;37428;53.580;-1.666;2024-01-30T09:52:05;5.70;99.90
33988;DHT22;37428;53.580;-1.666;2024-01-30T09:55:09;5.70;99.90
33988;DHT22;37428;53.580;-1.666;2024-01-30T09:58:13;5.70;99.90
33988;DHT22;37428;53.580;-1.666;2024-01-30T10:01:16;5.70;99.90
33988;DHT22;37428;53.580;-1.666;2024-01-30T10:04:19;5.80;99.90
33988;DHT22;37428;53.580;-1.666;2024-01-30T10:07:21;5.80;99.90
33988;DHT22;37428;53.580;-1.666;2024-01-30T10:10:24;5.80;99.90
33988;DHT22;37428;53.580;-1.666;2024-01-30T10:13:27;5.80;99.90
33988;DHT22;37428;53.580;-1.666;2024-01-30T10:16:29;5.80;99.90
33988;DHT22;37428;53.580;-1.666;2024-01-30T10:19:31;5.80;99.90
33988;DHT22;37428;53.580;-1.666;2024-01-30T10:22:33;5.90;99.90
33988;DHT22;37428;53.580;-1.666;2024-01-30T10:25:36;5.90;99.90
33988;DHT22;37428;53.580;-1.666;2024-01-30T10:28:40;6.00;99.90
33988;DHT22;37428;53.580;-1.666;2024-01-30T10:31:42;6.00;99.90
33988;DHT22;37428;53.580;-1.666;2024-01-30T10:34:44;5.90;99.90
33988;DHT22;37428;53.580;-1.666;2024-01-30T10:37:47;6.00;99.90
33988;DHT22;37428;53.580;-1.666;2024-01-30T10:40:52;6.00;99.90
33988;DHT22;37428;53.580;-1.666;2024-01-30T10:44:03;5.90;99.90
33988;DHT22;37428;53.580;-1.666;2024-01-30T10:47:12;5.80;99.90
33988;DHT22;37428;53.580;-1.666;2024-01-30T10:50:15;5.80;99.90
33988;DHT22;37428;53.580;-1.666;2024-01-30T10:53:18;5.90;99.90
33988;DHT22;37428;53.580;-1.666;2024-01-30T10:56:21;5.90;99.90
33988;DHT22;37428;53.580;-1.666;2024-01-30T10:59:25;5.90;99.90
33988;DHT22;37428;53.580;-1.666;2024-01-30T11:02:28;5.90;99.40
33988;DHT22;37428;53.580;-1.666;2024-01-30T11:05:31;6.10;99.90
33988;DHT22;37428;53.580;-1.666;2024-01-30T11:08:35;6.10;99.20
33988;DHT22;37428;53.580;-1.666;2024-01-30T11:11:49;6.30;98.80
33988;DHT22;37428;53.580;-1.666;2024-01-30T11:15:02;6.50;98.20
33988;DHT22;37428;53.580;-1.666;2024-01-30T11:18:06;6.60;97.50
33988;DHT22;37428;53.580;-1.666;2024-01-30T11:21:08;6.60;96.40
33988;DHT22;37428;53.580;-1.666;2024-01-30T11:24:10;6.50;97.00
33988;DHT22;37428;53.580;-1.666;2024-01-30T11:27:15;6.50;95.70
33988;DHT22;37428;53.580;-1.666;2024-01-30T11:30:25;6.60;96.40
33988;DHT22;37428;53.580;-1.666;2024-01-30T11:33:29;6.60;96.30
33988;DHT22;37428;53.580;-1.666;2024-01-30T11:36:32;6.60;96.60
33988;DHT22;37428;53.580;-1.666;2024-01-30T11:39:38;6.60;96.00
33988;DHT22;37428;53.580;-1.666;2024-01-30T11:42:42;6.70;95.80
33988;DHT22;37428;53.580;-1.666;2024-01-30T11:45:47;6.60;95.90
33988;DHT22;37428;53.580;-1.666;2024-01-30T11:48:49;6.50;95.60
33988;DHT22;37428;53.580;-1.666;2024-01-30T11:51:51;6.30;94.70
33988;DHT22;37428;53.580;-1.666;2024-01-30T11:54:54;6.30;95.60
33988;DHT22;37428;53.580;-1.666;2024-01-30T11:57:56;6.20;96.00
33988;DHT22;37428;53.580;-1.666;2024-01-30T12:01:00;6.10;95.20
33988;DHT22;37428;53.580;-1.666;2024-01-30T12:04:02;6.10;95.70
33988;DHT22;37428;53.580;-1.666;2024-01-30T12:07:09;6.10;96.10
33988;DHT22;37428;53.580;-1.666;2024-01-30T12:10:12;6.10;95.00
33988;DHT22;37428;53.580;-1.666;2024-01-30T12:13:14;6.20;95.80
33988;DHT22;37428;53.580;-1.666;2024-01-30T12:16:18;6.10;94.20
33988;DHT22;37428;53.580;-1.666;2024-01-30T12:19:23;6.10;95.20
33988;DHT22;37428;53.580;-1.666;2024-01-30T12:22:25;6.10;94.60
33988;DHT22;37428;53.580;-1.666;2024-01-30T12:25:27;6.10;95.20
33988;DHT22;37428;53.580;-1.666;2024-01-30T12:28:29;6.20;95.10
33988;DHT22;37428;53.580;-1.666;2024-01-30T12:31:33;6.30;95.30
33988;DHT22;37428;53.580;-1.666;2024-01-30T12:34:40;6.20;94.70
33988;DHT22;37428;53.580;-1.666;2024-01-30T12:37:43;6.20;94.90
33988;DHT22;37428;53.580;-1.666;2024-01-30T12:40:45;6.30;95.50
33988;DHT22;37428;53.580;-1.666;2024-01-30T12:43:47;6.50;94.00
33988;DHT22;37428;53.580;-1.666;2024-01-30T12:46:51;7.00;92.30
33988;DHT22;37428;53.580;-1.666;2024-01-30T12:49:53;7.20;91.30
33988;DHT22;37428;53.580;-1.666;2024-01-30T12:52:56;7.60;90.70
33988;DHT22;37428;53.580;-1.666;2024-01-30T12:55:58;8.10;89.00
33988;DHT22;37428;53.580;-1.666;2024-01-30T12:59:00;8.20;85.40
33988;DHT22;37428;53.580;-1.666;2024-01-30T13:02:04;7.80;84.60
33988;DHT22;37428;53.580;-1.666;2024-01-30T13:05:06;7.80;85.00
33988;DHT22;37428;53.580;-1.666;2024-01-30T13:08:08;7.60;85.40
33988;DHT22;37428;53.580;-1.666;2024-01-30T13:11:10;7.70;84.60
33988;DHT22;37428;53.580;-1.666;2024-01-30T13:14:13;7.80;84.80
33988;DHT22;37428;53.580;-1.666;2024-01-30T13:17:16;7.90;83.60
33988;DHT22;37428;53.580;-1.666;2024-01-30T13:20:19;8.00;83.60
33988;DHT22;37428;53.580;-1.666;2024-01-30T13:23:21;8.10;83.00
33988;DHT22;37428;53.580;-1.666;2024-01-30T13:26:23;8.30;83.00
33988;DHT22;37428;53.580;-1.666;2024-01-30T13:29:25;8.80;82.10
33988;DHT22;37428;53.580;-1.666;2024-01-30T13:32:29;9.40;79.90
33988;DHT22;37428;53.580;-1.666;2024-01-30T13:35:31;9.60;78.30
33988;DHT22;37428;53.580;-1.666;2024-01-30T13:38:33;9.90;76.40
33988;DHT22;37428;53.580;-1.666;2024-01-30T13:41:36;10.10;76.30
33988;DHT22;37428;53.580;-1.666;2024-01-30T13:44:38;10.10;74.40
33988;DHT22;37428;53.580;-1.666;2024-01-30T13:47:41;10.00;73.50
33988;DHT22;37428;53.580;-1.666;2024-01-30T13:50:43;9.90;74.40
33988;DHT22;37428;53.580;-1.666;2024-01-30T13:53:46;9.70;73.30
33988;DHT22;37428;53.580;-1.666;2024-01-30T13:56:49;9.50;72.80
33988;DHT22;37428;53.580;-1.666;2024-01-30T13:59:51;9.30;73.80
33988;DHT22;37428;53.580;-1.666;2024-01-30T14:02:55;9.50;73.70
33988;DHT22;37428;53.580;-1.666;2024-01-30T14:05:59;9.40;72.70
33988;DHT22;37428;53.580;-1.666;2024-01-30T14:09:01;9.40;72.80
33988;DHT22;37428;53.580;-1.666;2024-01-30T14:12:04;9.40;72.70
33988;DHT22;37428;53.580;-1.666;2024-01-30T14:15:08;9.40;72.70
33988;DHT22;37428;53.580;-1.666;2024-01-30T14:18:13;9.50;72.10
33988;DHT22;37428;53.580;-1.666;2024-01-30T14:21:15;9.70;71.30
33988;DHT22;37428;53.580;-1.666;2024-01-30T14:24:17;10.00;71.20
33988;DHT22;37428;53.580;-1.666;2024-01-30T14:27:19;10.10;69.10
33988;DHT22;37428;53.580;-1.666;2024-01-30T14:30:21;10.10;68.30
33988;DHT22;37428;53.580;-1.666;2024-01-30T14:33:25;9.90;65.30
33988;DHT22;37428;53.580;-1.666;2024-01-30T14:36:28;9.80;66.90
33988;DHT22;37428;53.580;-1.666;2024-01-30T14:39:30;9.70;66.30
33988;DHT22;37428;53.580;-1.666;2024-01-30T14:42:32;9.70;65.80
33988;DHT22;37428;53.580;-1.666;2024-01-30T14:45:34;9.80;64.70
33988;DHT22;37428;53.580;-1.666;2024-01-30T14:48:38;9.90;65.30
33988;DHT22;37428;53.580;-1.666;2024-01-30T14:51:40;9.70;64.40
33988;DHT22;37428;53.580;-1.666;2024-01-30T14:54:42;9.70;64.10
33988;DHT22;37428;53.580;-1.666;2024-01-30T14:57:44;9.50;63.80
33988;DHT22;37428;53.580;-1.666;2024-01-30T15:00:46;9.40;63.90
33988;DHT22;37428;53.580;-1.666;2024-01-30T15:03:50;9.00;65.00
33988;DHT22;37428;53.580;-1.666;2024-01-30T15:06:52;8.50;67.40
33988;DHT22;37428;53.580;-1.666;2024-01-30T15:09:56;8.50;69.50
33988;DHT22;37428;53.580;-1.666;2024-01-30T15:12:58;8.40;68.40
33988;DHT22;37428;53.580;-1.666;2024-01-30T15:16:00;8.40;66.50
33988;DHT22;37428;53.580;-1.666;2024-01-30T15:19:05;8.20;64.30
33988;DHT22;37428;53.580;-1.666;2024-01-30T15:22:07;8.10;64.70
33988;DHT22;37428;53.580;-1.666;2024-01-30T15:25:09;7.80;65.70
33988;DHT22;37428;53.580;-1.666;2024-01-30T15:28:11;7.60;66.10
33988;DHT22;37428;53.580;-1.666;2024-01-30T15:31:15;7.50;68.20
33988;DHT22;37428;53.580;-1.666;2024-01-30T15:34:18;7.30;70.10
33988;DHT22;37428;53.580;-1.666;2024-01-30T15:37:21;7.10;70.50
33988;DHT22;37428;53.580;-1.666;2024-01-30T15:40:23;7.00;73.50
33988;DHT22;37428;53.580;-1.666;2024-01-30T15:43:25;6.80;73.60
33988;DHT22;37428;53.580;-1.666;2024-01-30T15:46:27;6.70;75.10
33988;DHT22;37428;53.580;-1.666;2024-01-30T15:49:31;6.60;76.80
33988;DHT22;37428;53.580;-1.666;2024-01-30T15:52:33;6.50;77.50
33988;DHT22;37428;53.580;-1.666;2024-01-30T15:55:35;6.30;78.20
33988;DHT22;37428;53.580;-1.666;2024-01-30T15:58:37;6.10;79.70
33988;DHT22;37428;53.580;-1.666;2024-01-30T16:01:39;6.00;80.90
33988;DHT22;37428;53.580;-1.666;2024-01-30T16:04:43;5.90;80.80
33988;DHT22;37428;53.580;-1.666;2024-01-30T16:07:45;5.80;81.80
33988;DHT22;37428;53.580;-1.666;2024-01-30T16:10:47;5.60;81.90
33988;DHT22;37428;53.580;-1.666;2024-01-30T16:13:49;5.50;82.50
33988;DHT22;37428;53.580;-1.666;2024-01-30T16:16:53;5.50;83.30
33988;DHT22;37428;53.580;-1.666;2024-01-30T16:19:56;5.40;83.30
33988;DHT22;37428;53.580;-1.666;2024-01-30T16:22:58;5.50;84.30
33988;DHT22;37428;53.580;-1.666;2024-01-30T16:26:00;5.50;83.70
33988;DHT22;37428;53.580;-1.666;2024-01-30T16:29:03;5.50;84.30
33988;DHT22;37428;53.580;-1.666;2024-01-30T16:32:05;5.40;84.40
33988;DHT22;37428;53.580;-1.666;2024-01-30T16:35:08;5.40;84.30
33988;DHT22;37428;53.580;-1.666;2024-01-30T16:38:10;5.50;84.90
33988;DHT22;37428;53.580;-1.666;2024-01-30T16:41:13;5.30;84.60
33988;DHT22;37428;53.580;-1.666;2024-01-30T16:44:15;5.20;84.80
33988;DHT22;37428;53.580;-1.666;2024-01-30T16:47:17;5.20;85.30
33988;DHT22;37428;53.580;-1.666;2024-01-30T16:50:20;5.20;86.10
33988;DHT22;37428;53.580;-1.666;2024-01-30T16:53:22;5.30;86.00
33988;DHT22;37428;53.580;-1.666;2024-01-30T16:56:24;5.30;86.20
33988;DHT22;37428;53.580;-1.666;2024-01-30T16:59:27;5.30;86.20
33988;DHT22;37428;53.580;-1.666;2024-01-30T17:02:29;5.30;85.30
33988;DHT22;37428;53.580;-1.666;2024-01-30T17:05:33;5.30;85.40
33988;DHT22;37428;53.580;-1.666;2024-01-30T17:08:35;5.20;85.90
33988;DHT22;37428;53.580;-1.666;2024-01-30T17:11:38;5.20;86.90
33988;DHT22;37428;53.580;-1.666;2024-01-30T17:14:40;5.10;86.60
33988;DHT22;37428;53.580;-1.666;2024-01-30T17:17:42;5.10;86.80
33988;DHT22;37428;53.580;-1.666;2024-01-30T17:20:45;5.10;86.90
33988;DHT22;37428;53.580;-1.666;2024-01-30T17:23:48;5.10;87.60
33988;DHT22;37428;53.580;-1.666;2024-01-30T17:26:50;5.10;86.80
33988;DHT22;37428;53.580;-1.666;2024-01-30T17:29:52;5.10;86.60
33988;DHT22;37428;53.580;-1.666;2024-01-30T17:32:54;5.10;87.40
33988;DHT22;37428;53.580;-1.666;2024-01-30T17:35:58;5.00;88.00
33988;DHT22;37428;53.580;-1.666;2024-01-30T17:39:00;5.00;87.80
33988;DHT22;37428;53.580;-1.666;2024-01-30T17:42:02;5.00;88.10
33988;DHT22;37428;53.580;-1.666;2024-01-30T17:45:05;4.90;87.90
33988;DHT22;37428;53.580;-1.666;2024-01-30T17:48:07;4.90;88.80
33988;DHT22;37428;53.580;-1.666;2024-01-30T17:51:11;4.80;89.20
33988;DHT22;37428;53.580;-1.666;2024-01-30T17:54:13;4.70;89.60
33988;DHT22;37428;53.580;-1.666;2024-01-30T17:57:15;4.80;90.60
33988;DHT22;37428;53.580;-1.666;2024-01-30T18:00:18;4.70;90.30
33988;DHT22;37428;53.580;-1.666;2024-01-30T18:03:20;4.70;90.60
33988;DHT22;37428;53.580;-1.666;2024-01-30T18:06:23;4.70;90.70
33988;DHT22;37428;53.580;-1.666;2024-01-30T18:09:26;4.70;91.00
33988;DHT22;37428;53.580;-1.666;2024-01-30T18:12:28;4.70;91.60
33988;DHT22;37428;53.580;-1.666;2024-01-30T18:15:30;4.60;92.60
33988;DHT22;37428;53.580;-1.666;2024-01-30T18:18:32;4.60;93.50
33988;DHT22;37428;53.580;-1.666;2024-01-30T18:21:37;4.60;93.70
33988;DHT22;37428;53.580;-1.666;2024-01-30T18:24:39;4.70;94.30
33988;DHT22;37428;53.580;-1.666;2024-01-30T18:27:42;4.70;93.70
33988;DHT22;37428;53.580;-1.666;2024-01-30T18:30:44;4.80;93.80
33988;DHT22;37428;53.580;-1.666;2024-01-30T18:33:46;4.80;93.10
33988;DHT22;37428;53.580;-1.666;2024-01-30T18:36:52;4.80;93.30
33988;DHT22;37428;53.580;-1.666;2024-01-30T18:39:58;4.90;93.30
33988;DHT22;37428;53.580;-1.666;2024-01-30T18:43:00;5.00;93.00
33988;DHT22;37428;53.580;-1.666;2024-01-30T18:46:05;5.00;92.90
33988;DHT22;37428;53.580;-1.666;2024-01-30T18:49:07;5.10;92.80
33988;DHT22;37428;53.580;-1.666;2024-01-30T18:52:10;5.10;93.10
33988;DHT22;37428;53.580;-1.666;2024-01-30T18:55:12;5.10;93.30
33988;DHT22;37428;53.580;-1.666;2024-01-30T18:58:15;5.10;94.10
33988;DHT22;37428;53.580;-1.666;2024-01-30T19:01:17;5.10;94.30
33988;DHT22;37428;53.580;-1.666;2024-01-30T19:04:19;5.10;95.10
33988;DHT22;37428;53.580;-1.666;2024-01-30T19:07:23;5.10;95.40
33988;DHT22;37428;53.580;-1.666;2024-01-30T19:10:25;5.10;95.20
33988;DHT22;37428;53.580;-1.666;2024-01-30T19:13:27;5.10;95.10